sensor_id;sensor_type;location;lat;lon;timestamp;temperature;humidity
24686;DHT22;12804;51.176;4.452;2023-12-29T00:01:16;11.20;31.80
24686;DHT22;12804;51.176;4.452;2023-12-29T00:03:42;11.20;35.50
24686;DHT22;12804;51.176;4.452;2023-12-29T00:06:08;11.20;33.20
24686;DHT22;12804;51.176;4.452;2023-12-29T00:08:34;11.30;29.90
24686;DHT22;12804;51.176;4.452;2023-12-29T00:10:59;11.20;30.60
24686;DHT22;12804;51.176;4.452;2023-12-29T00:13:25;11.30;33.50
24686;DHT22;12804;51.176;4.452;2023-12-29T00:15:54;11.20;38.80
24686;DHT22;12804;51.176;4.452;2023-12-29T00:18:21;11.20;47.30
24686;DHT22;12804;51.176;4.452;2023-12-29T00:20:48;11.10;57.10
24686;DHT22;12804;51.176;4.452;2023-12-29T00:23:13;11.00;77.20
24686;DHT22;12804;51.176;4.452;2023-12-29T00:25:39;10.90;99.90
24686;DHT22;12804;51.176;4.452;2023-12-29T00:28:05;10.70;99.90
24686;DHT22;12804;51.176;4.452;2023-12-29T00:30:31;10.70;99.90
24686;DHT22;12804;51.176;4.452;2023-12-29T00:32:58;10.60;99.90
24686;DHT22;12804;51.176;4.452;2023-12-29T00:35:24;10.60;99.90
24686;DHT22;12804;51.176;4.452;2023-12-29T00:37:52;10.60;99.90
24686;DHT22;12804;51.176;4.452;2023-12-29T00:40:18;10.50;99.90
24686;DHT22;12804;51.176;4.452;2023-12-29T00:42:44;10.50;99.90
24686;DHT22;12804;51.176;4.452;2023-12-29T00:45:10;10.50;99.90
24686;DHT22;12804;51.176;4.452;2023-12-29T00:47:36;10.50;99.90
24686;DHT22;12804;51.176;4.452;2023-12-29T00:50:03;10.50;99.90
24686;DHT22;12804;51.176;4.452;2023-12-29T00:52:29;10.50;99.90
24686;DHT22;12804;51.176;4.452;2023-12-29T00:54:55;10.60;99.90
24686;DHT22;12804;51.176;4.452;2023-12-29T00:57:20;10.60;99.90
24686;DHT22;12804;51.176;4.452;2023-12-29T00:59:47;10.60;99.90
24686;DHT22;12804;51.176;4.452;2023-12-29T01:02:13;10.70;99.90
24686;DHT22;12804;51.176;4.452;2023-12-29T01:04:39;10.70;99.90
24686;DHT22;12804;51.176;4.452;2023-12-29T01:07:05;10.70;99.90
24686;DHT22;12804;51.176;4.452;2023-12-29T01:09:31;10.70;99.90
24686;DHT22;12804;51.176;4.452;2023-12-29T01:11:57;10.80;99.90
24686;DHT22;12804;51.176;4.452;2023-12-29T01:14:22;10.80;99.90
24686;DHT22;12804;51.176;4.452;2023-12-29T01:16:48;10.80;99.90
24686;DHT22;12804;51.176;4.452;2023-12-29T01:19:14;10.80;99.00
24686;DHT22;12804;51.176;4.452;2023-12-29T01:21:40;10.80;98.00
24686;DHT22;12804;51.176;4.452;2023-12-29T01:24:06;10.80;96.30
24686;DHT22;12804;51.176;4.452;2023-12-29T01:26:39;10.80;93.90
24686;DHT22;12804;51.176;4.452;2023-12-29T01:29:05;10.80;94.60
24686;DHT22;12804;51.176;4.452;2023-12-29T01:31:31;10.90;86.90
24686;DHT22;12804;51.176;4.452;2023-12-29T01:33:58;10.90;84.40
24686;DHT22;12804;51.176;4.452;2023-12-29T01:36:24;10.90;89.20
24686;DHT22;12804;51.176;4.452;2023-12-29T01:38:53;10.90;88.30
24686;DHT22;12804;51.176;4.452;2023-12-29T01:41:22;10.90;91.50
24686;DHT22;12804;51.176;4.452;2023-12-29T01:46:30;10.80;92.60
24686;DHT22;12804;51.176;4.452;2023-12-29T01:48:57;10.80;95.90
24686;DHT22;12804;51.176;4.452;2023-12-29T01:51:25;10.90;97.20
24686;DHT22;12804;51.176;4.452;2023-12-29T01:53:52;10.80;94.60
24686;DHT22;12804;51.176;4.452;2023-12-29T01:56:19;10.90;94.90
24686;DHT22;12804;51.176;4.452;2023-12-29T01:58:49;10.90;91.60
24686;DHT22;12804;51.176;4.452;2023-12-29T02:01:18;11.00;88.00
24686;DHT22;12804;51.176;4.452;2023-12-29T02:03:44;10.90;91.50
24686;DHT22;12804;51.176;4.452;2023-12-29T02:06:11;10.90;93.80
24686;DHT22;12804;51.176;4.452;2023-12-29T02:08:38;11.00;90.90
24686;DHT22;12804;51.176;4.452;2023-12-29T02:11:04;11.00;86.20
24686;DHT22;12804;51.176;4.452;2023-12-29T02:13:31;11.00;80.10
24686;DHT22;12804;51.176;4.452;2023-12-29T02:16:04;11.00;76.40
24686;DHT22;12804;51.176;4.452;2023-12-29T02:18:33;11.10;72.70
24686;DHT22;12804;51.176;4.452;2023-12-29T02:21:00;11.20;66.80
24686;DHT22;12804;51.176;4.452;2023-12-29T02:23:28;11.30;57.30
24686;DHT22;12804;51.176;4.452;2023-12-29T02:26:08;11.20;61.50
24686;DHT22;12804;51.176;4.452;2023-12-29T02:28:39;11.20;67.70
24686;DHT22;12804;51.176;4.452;2023-12-29T02:31:19;11.20;72.90
24686;DHT22;12804;51.176;4.452;2023-12-29T02:33:47;11.10;69.40
24686;DHT22;12804;51.176;4.452;2023-12-29T02:36:16;11.10;75.60
24686;DHT22;12804;51.176;4.452;2023-12-29T02:38:42;11.10;70.30
24686;DHT22;12804;51.176;4.452;2023-12-29T02:41:09;11.10;64.10
24686;DHT22;12804;51.176;4.452;2023-12-29T02:43:35;11.20;65.90
24686;DHT22;12804;51.176;4.452;2023-12-29T02:46:01;11.20;61.30
24686;DHT22;12804;51.176;4.452;2023-12-29T02:48:26;11.20;68.70
24686;DHT22;12804;51.176;4.452;2023-12-29T02:50:52;11.00;76.50
24686;DHT22;12804;51.176;4.452;2023-12-29T02:53:18;10.90;82.50
24686;DHT22;12804;51.176;4.452;2023-12-29T02:55:44;10.90;89.00
24686;DHT22;12804;51.176;4.452;2023-12-29T02:58:09;10.90;93.80
24686;DHT22;12804;51.176;4.452;2023-12-29T03:00:35;10.80;95.00
24686;DHT22;12804;51.176;4.452;2023-12-29T03:03:01;10.80;93.90
24686;DHT22;12804;51.176;4.452;2023-12-29T03:05:27;10.80;95.90
24686;DHT22;12804;51.176;4.452;2023-12-29T03:07:53;10.80;95.30
24686;DHT22;12804;51.176;4.452;2023-12-29T03:10:18;10.70;98.10
24686;DHT22;12804;51.176;4.452;2023-12-29T03:12:44;10.80;95.90
24686;DHT22;12804;51.176;4.452;2023-12-29T03:15:10;10.80;93.50
24686;DHT22;12804;51.176;4.452;2023-12-29T03:17:36;10.80;93.00
24686;DHT22;12804;51.176;4.452;2023-12-29T03:20:03;10.80;91.00
24686;DHT22;12804;51.176;4.452;2023-12-29T03:22:30;10.70;92.90
24686;DHT22;12804;51.176;4.452;2023-12-29T03:24:56;10.70;96.20
24686;DHT22;12804;51.176;4.452;2023-12-29T03:27:22;10.70;95.50
24686;DHT22;12804;51.176;4.452;2023-12-29T03:29:47;10.70;92.30
24686;DHT22;12804;51.176;4.452;2023-12-29T03:32:13;10.70;91.00
24686;DHT22;12804;51.176;4.452;2023-12-29T03:34:41;10.70;84.60
24686;DHT22;12804;51.176;4.452;2023-12-29T03:37:06;10.70;88.20
24686;DHT22;12804;51.176;4.452;2023-12-29T03:39:32;10.80;88.40
24686;DHT22;12804;51.176;4.452;2023-12-29T03:42:01;10.90;80.20
24686;DHT22;12804;51.176;4.452;2023-12-29T03:44:27;10.90;80.80
24686;DHT22;12804;51.176;4.452;2023-12-29T03:46:53;10.80;89.00
24686;DHT22;12804;51.176;4.452;2023-12-29T03:49:19;10.80;91.90
24686;DHT22;12804;51.176;4.452;2023-12-29T03:51:47;10.80;92.30
24686;DHT22;12804;51.176;4.452;2023-12-29T03:54:14;10.80;90.40
24686;DHT22;12804;51.176;4.452;2023-12-29T03:56:40;10.70;93.00
24686;DHT22;12804;51.176;4.452;2023-12-29T03:59:06;10.80;93.40
24686;DHT22;12804;51.176;4.452;2023-12-29T04:01:33;10.80;91.40
24686;DHT22;12804;51.176;4.452;2023-12-29T04:03:59;10.80;91.70
24686;DHT22;12804;51.176;4.452;2023-12-29T04:06:25;10.70;92.90
24686;DHT22;12804;51.176;4.452;2023-12-29T04:08:51;10.70;95.10
24686;DHT22;12804;51.176;4.452;2023-12-29T04:11:16;10.70;95.40
24686;DHT22;12804;51.176;4.452;2023-12-29T04:13:42;10.60;95.20
24686;DHT22;12804;51.176;4.452;2023-12-29T04:16:08;10.60;97.80
24686;DHT22;12804;51.176;4.452;2023-12-29T04:18:34;10.60;98.80
24686;DHT22;12804;51.176;4.452;2023-12-29T04:21:00;10.60;99.10
24686;DHT22;12804;51.176;4.452;2023-12-29T04:23:26;10.60;99.90
24686;DHT22;12804;51.176;4.452;2023-12-29T04:25:52;10.60;99.90
24686;DHT22;12804;51.176;4.452;2023-12-29T04:28:17;10.50;99.90
24686;DHT22;12804;51.176;4.452;2023-12-29T04:30:43;10.50;99.90
24686;DHT22;12804;51.176;4.452;2023-12-29T04:33:09;10.50;99.90
24686;DHT22;12804;51.176;4.452;2023-12-29T04:35:35;10.50;99.90
24686;DHT22;12804;51.176;4.452;2023-12-29T04:38:01;10.50;99.90
24686;DHT22;12804;51.176;4.452;2023-12-29T04:40:27;10.50;99.90
24686;DHT22;12804;51.176;4.452;2023-12-29T04:42:53;10.50;99.90
24686;DHT22;12804;51.176;4.452;2023-12-29T04:45:19;10.50;99.90
24686;DHT22;12804;51.176;4.452;2023-12-29T04:47:44;10.50;99.90
24686;DHT22;12804;51.176;4.452;2023-12-29T04:50:10;10.50;99.90
24686;DHT22;12804;51.176;4.452;2023-12-29T04:52:36;10.40;99.90
24686;DHT22;12804;51.176;4.452;2023-12-29T04:55:02;10.40;99.90
24686;DHT22;12804;51.176;4.452;2023-12-29T04:57:27;10.40;99.90
24686;DHT22;12804;51.176;4.452;2023-12-29T04:59:53;10.40;99.90
24686;DHT22;12804;51.176;4.452;2023-12-29T05:02:19;10.40;99.90
24686;DHT22;12804;51.176;4.452;2023-12-29T05:04:45;10.50;99.90
24686;DHT22;12804;51.176;4.452;2023-12-29T05:07:12;10.50;99.90
24686;DHT22;12804;51.176;4.452;2023-12-29T05:09:37;10.50;99.90
24686;DHT22;12804;51.176;4.452;2023-12-29T05:12:03;10.50;99.90
24686;DHT22;12804;51.176;4.452;2023-12-29T05:14:29;10.50;99.90
24686;DHT22;12804;51.176;4.452;2023-12-29T05:16:55;10.50;99.90
24686;DHT22;12804;51.176;4.452;2023-12-29T05:19:21;10.40;99.90
24686;DHT22;12804;51.176;4.452;2023-12-29T05:21:47;10.40;99.90
24686;DHT22;12804;51.176;4.452;2023-12-29T05:24:16;10.40;99.90
24686;DHT22;12804;51.176;4.452;2023-12-29T05:26:42;10.40;99.90
24686;DHT22;12804;51.176;4.452;2023-12-29T05:29:08;10.40;99.90
24686;DHT22;12804;51.176;4.452;2023-12-29T05:31:33;10.40;99.90
24686;DHT22;12804;51.176;4.452;2023-12-29T05:33:59;10.40;99.90
24686;DHT22;12804;51.176;4.452;2023-12-29T05:36:25;10.40;99.90
24686;DHT22;12804;51.176;4.452;2023-12-29T05:38:51;10.40;99.90
24686;DHT22;12804;51.176;4.452;2023-12-29T05:41:16;10.50;99.90
24686;DHT22;12804;51.176;4.452;2023-12-29T05:43:44;10.50;99.90
24686;DHT22;12804;51.176;4.452;2023-12-29T05:46:11;10.50;99.90
24686;DHT22;12804;51.176;4.452;2023-12-29T05:48:39;10.30;99.90
24686;DHT22;12804;51.176;4.452;2023-12-29T05:51:08;10.10;99.90
24686;DHT22;12804;51.176;4.452;2023-12-29T05:53:35;10.00;99.90
24686;DHT22;12804;51.176;4.452;2023-12-29T05:56:01;10.00;99.90
24686;DHT22;12804;51.176;4.452;2023-12-29T05:58:27;10.00;99.90
24686;DHT22;12804;51.176;4.452;2023-12-29T06:00:54;9.90;99.90
24686;DHT22;12804;51.176;4.452;2023-12-29T06:03:20;10.00;99.90
24686;DHT22;12804;51.176;4.452;2023-12-29T06:05:45;10.00;99.90
24686;DHT22;12804;51.176;4.452;2023-12-29T06:08:11;10.00;99.90
24686;DHT22;12804;51.176;4.452;2023-12-29T06:10:37;10.00;99.90
24686;DHT22;12804;51.176;4.452;2023-12-29T06:13:03;10.00;99.90
24686;DHT22;12804;51.176;4.452;2023-12-29T06:15:29;10.10;99.90
24686;DHT22;12804;51.176;4.452;2023-12-29T06:17:55;10.10;99.90
24686;DHT22;12804;51.176;4.452;2023-12-29T06:20:20;10.10;99.90
24686;DHT22;12804;51.176;4.452;2023-12-29T06:22:46;10.00;99.90
24686;DHT22;12804;51.176;4.452;2023-12-29T06:25:12;10.10;99.90
24686;DHT22;12804;51.176;4.452;2023-12-29T06:27:39;10.10;99.90
24686;DHT22;12804;51.176;4.452;2023-12-29T06:30:09;10.10;99.90
24686;DHT22;12804;51.176;4.452;2023-12-29T06:32:38;10.20;99.90
24686;DHT22;12804;51.176;4.452;2023-12-29T06:35:05;10.10;99.90
24686;DHT22;12804;51.176;4.452;2023-12-29T06:37:32;10.10;99.90
24686;DHT22;12804;51.176;4.452;2023-12-29T06:39:58;10.10;99.90
24686;DHT22;12804;51.176;4.452;2023-12-29T06:42:24;10.10;99.90
24686;DHT22;12804;51.176;4.452;2023-12-29T06:44:50;10.10;99.90
24686;DHT22;12804;51.176;4.452;2023-12-29T06:47:16;10.10;99.90
24686;DHT22;12804;51.176;4.452;2023-12-29T06:49:42;10.10;99.90
24686;DHT22;12804;51.176;4.452;2023-12-29T06:52:07;10.10;99.90
24686;DHT22;12804;51.176;4.452;2023-12-29T06:54:34;10.20;99.90
24686;DHT22;12804;51.176;4.452;2023-12-29T06:57:00;10.20;99.90
24686;DHT22;12804;51.176;4.452;2023-12-29T06:59:26;10.20;99.90
24686;DHT22;12804;51.176;4.452;2023-12-29T07:01:51;10.10;99.90
24686;DHT22;12804;51.176;4.452;2023-12-29T07:04:17;10.00;99.90
24686;DHT22;12804;51.176;4.452;2023-12-29T07:06:43;10.00;99.90
24686;DHT22;12804;51.176;4.452;2023-12-29T07:09:09;10.00;99.90
24686;DHT22;12804;51.176;4.452;2023-12-29T07:11:35;10.00;99.90
24686;DHT22;12804;51.176;4.452;2023-12-29T07:14:02;10.00;99.90
24686;DHT22;12804;51.176;4.452;2023-12-29T07:16:28;10.00;99.90
24686;DHT22;12804;51.176;4.452;2023-12-29T07:18:54;10.00;99.90
24686;DHT22;12804;51.176;4.452;2023-12-29T07:21:19;10.00;99.90
24686;DHT22;12804;51.176;4.452;2023-12-29T07:23:45;10.00;99.90
24686;DHT22;12804;51.176;4.452;2023-12-29T07:26:11;10.00;99.90
24686;DHT22;12804;51.176;4.452;2023-12-29T07:28:37;10.10;99.90
24686;DHT22;12804;51.176;4.452;2023-12-29T07:31:03;10.10;99.90
24686;DHT22;12804;51.176;4.452;2023-12-29T07:33:30;10.10;99.90
24686;DHT22;12804;51.176;4.452;2023-12-29T07:35:55;10.00;99.90
24686;DHT22;12804;51.176;4.452;2023-12-29T07:38:21;9.90;99.90
24686;DHT22;12804;51.176;4.452;2023-12-29T07:40:47;9.90;99.90
24686;DHT22;12804;51.176;4.452;2023-12-29T07:43:14;9.90;99.90
24686;DHT22;12804;51.176;4.452;2023-12-29T07:45:39;9.90;99.90
24686;DHT22;12804;51.176;4.452;2023-12-29T07:48:06;9.90;99.90
24686;DHT22;12804;51.176;4.452;2023-12-29T07:50:32;9.90;99.90
24686;DHT22;12804;51.176;4.452;2023-12-29T07:52:58;10.00;99.90
24686;DHT22;12804;51.176;4.452;2023-12-29T07:55:28;10.00;99.90
24686;DHT22;12804;51.176;4.452;2023-12-29T07:57:54;9.90;99.90
24686;DHT22;12804;51.176;4.452;2023-12-29T08:00:20;10.00;99.90
24686;DHT22;12804;51.176;4.452;2023-12-29T08:02:46;10.00;99.90
24686;DHT22;12804;51.176;4.452;2023-12-29T08:05:12;10.10;99.90
24686;DHT22;12804;51.176;4.452;2023-12-29T08:07:37;10.10;99.90
24686;DHT22;12804;51.176;4.452;2023-12-29T08:10:05;10.00;99.90
24686;DHT22;12804;51.176;4.452;2023-12-29T08:12:31;9.90;99.90
24686;DHT22;12804;51.176;4.452;2023-12-29T08:14:59;9.90;99.90
24686;DHT22;12804;51.176;4.452;2023-12-29T08:17:25;9.90;99.90
24686;DHT22;12804;51.176;4.452;2023-12-29T08:19:51;9.90;99.90
24686;DHT22;12804;51.176;4.452;2023-12-29T08:22:19;9.90;99.90
24686;DHT22;12804;51.176;4.452;2023-12-29T08:24:45;9.80;99.90
24686;DHT22;12804;51.176;4.452;2023-12-29T08:27:12;9.70;99.90
24686;DHT22;12804;51.176;4.452;2023-12-29T08:29:39;9.70;99.90
24686;DHT22;12804;51.176;4.452;2023-12-29T08:32:05;9.60;99.90
24686;DHT22;12804;51.176;4.452;2023-12-29T08:34:31;9.60;99.90
24686;DHT22;12804;51.176;4.452;2023-12-29T08:36:57;9.60;99.90
24686;DHT22;12804;51.176;4.452;2023-12-29T08:39:23;9.60;99.90
24686;DHT22;12804;51.176;4.452;2023-12-29T08:41:49;9.60;99.90
24686;DHT22;12804;51.176;4.452;2023-12-29T08:44:16;9.60;99.90
24686;DHT22;12804;51.176;4.452;2023-12-29T08:46:42;9.70;99.90
24686;DHT22;12804;51.176;4.452;2023-12-29T08:49:07;9.70;99.90
24686;DHT22;12804;51.176;4.452;2023-12-29T08:51:34;9.70;99.90
24686;DHT22;12804;51.176;4.452;2023-12-29T08:54:00;9.70;99.90
24686;DHT22;12804;51.176;4.452;2023-12-29T08:56:25;9.70;99.90
24686;DHT22;12804;51.176;4.452;2023-12-29T08:58:51;9.70;99.90
24686;DHT22;12804;51.176;4.452;2023-12-29T09:01:18;9.70;99.90
24686;DHT22;12804;51.176;4.452;2023-12-29T09:03:44;9.70;99.90
24686;DHT22;12804;51.176;4.452;2023-12-29T09:06:10;9.70;99.90
24686;DHT22;12804;51.176;4.452;2023-12-29T09:08:36;9.80;99.90
24686;DHT22;12804;51.176;4.452;2023-12-29T09:11:02;9.80;99.90
24686;DHT22;12804;51.176;4.452;2023-12-29T09:13:28;9.90;99.90
24686;DHT22;12804;51.176;4.452;2023-12-29T09:15:55;9.90;99.90
24686;DHT22;12804;51.176;4.452;2023-12-29T09:18:21;10.00;99.90
24686;DHT22;12804;51.176;4.452;2023-12-29T09:20:47;10.00;99.90
24686;DHT22;12804;51.176;4.452;2023-12-29T09:23:13;10.00;99.90
24686;DHT22;12804;51.176;4.452;2023-12-29T09:25:40;10.10;99.90
24686;DHT22;12804;51.176;4.452;2023-12-29T09:28:06;10.10;99.90
24686;DHT22;12804;51.176;4.452;2023-12-29T09:30:32;10.10;99.90
24686;DHT22;12804;51.176;4.452;2023-12-29T09:32:58;10.10;99.90
24686;DHT22;12804;51.176;4.452;2023-12-29T09:35:24;10.20;99.90
24686;DHT22;12804;51.176;4.452;2023-12-29T09:37:50;10.30;99.90
24686;DHT22;12804;51.176;4.452;2023-12-29T09:40:16;10.30;99.90
24686;DHT22;12804;51.176;4.452;2023-12-29T09:42:45;10.30;99.90
24686;DHT22;12804;51.176;4.452;2023-12-29T09:45:12;10.40;99.90
24686;DHT22;12804;51.176;4.452;2023-12-29T09:47:42;10.40;99.90
24686;DHT22;12804;51.176;4.452;2023-12-29T09:50:11;10.50;99.90
24686;DHT22;12804;51.176;4.452;2023-12-29T09:52:40;10.50;99.90
24686;DHT22;12804;51.176;4.452;2023-12-29T09:55:10;10.50;99.90
24686;DHT22;12804;51.176;4.452;2023-12-29T09:57:37;10.60;99.90
24686;DHT22;12804;51.176;4.452;2023-12-29T10:00:04;10.70;99.90
24686;DHT22;12804;51.176;4.452;2023-12-29T10:02:36;10.80;99.90
24686;DHT22;12804;51.176;4.452;2023-12-29T10:05:03;10.80;99.90
24686;DHT22;12804;51.176;4.452;2023-12-29T10:07:32;10.80;99.90
24686;DHT22;12804;51.176;4.452;2023-12-29T10:10:01;10.80;99.90
24686;DHT22;12804;51.176;4.452;2023-12-29T10:12:28;11.00;99.90
24686;DHT22;12804;51.176;4.452;2023-12-29T10:17:48;11.20;99.90
24686;DHT22;12804;51.176;4.452;2023-12-29T10:20:43;11.30;99.90
24686;DHT22;12804;51.176;4.452;2023-12-29T10:23:36;11.40;99.90
24686;DHT22;12804;51.176;4.452;2023-12-29T10:26:04;11.30;99.90
24686;DHT22;12804;51.176;4.452;2023-12-29T10:28:32;11.20;99.90
24686;DHT22;12804;51.176;4.452;2023-12-29T10:30:57;11.10;99.90
24686;DHT22;12804;51.176;4.452;2023-12-29T10:33:24;11.20;99.90
24686;DHT22;12804;51.176;4.452;2023-12-29T10:35:57;11.20;99.90
24686;DHT22;12804;51.176;4.452;2023-12-29T10:38:27;11.10;99.90
24686;DHT22;12804;51.176;4.452;2023-12-29T10:40:53;11.10;99.90
24686;DHT22;12804;51.176;4.452;2023-12-29T10:43:23;11.10;99.90
24686;DHT22;12804;51.176;4.452;2023-12-29T10:45:49;11.00;99.90
24686;DHT22;12804;51.176;4.452;2023-12-29T10:48:21;10.90;99.90
24686;DHT22;12804;51.176;4.452;2023-12-29T10:50:49;10.80;99.90
24686;DHT22;12804;51.176;4.452;2023-12-29T10:53:15;10.80;99.90
24686;DHT22;12804;51.176;4.452;2023-12-29T10:55:44;10.80;99.90
24686;DHT22;12804;51.176;4.452;2023-12-29T10:58:09;10.90;99.90
24686;DHT22;12804;51.176;4.452;2023-12-29T11:00:35;10.90;99.90
24686;DHT22;12804;51.176;4.452;2023-12-29T11:03:03;10.90;99.90
24686;DHT22;12804;51.176;4.452;2023-12-29T11:05:29;10.80;99.90
24686;DHT22;12804;51.176;4.452;2023-12-29T11:07:55;10.90;99.90
24686;DHT22;12804;51.176;4.452;2023-12-29T11:10:21;10.90;99.90
24686;DHT22;12804;51.176;4.452;2023-12-29T11:12:48;11.00;99.90
24686;DHT22;12804;51.176;4.452;2023-12-29T11:15:15;11.10;99.90
24686;DHT22;12804;51.176;4.452;2023-12-29T11:17:43;11.10;99.90
24686;DHT22;12804;51.176;4.452;2023-12-29T11:20:16;11.10;99.90
24686;DHT22;12804;51.176;4.452;2023-12-29T11:22:43;11.10;99.90
24686;DHT22;12804;51.176;4.452;2023-12-29T11:25:11;11.10;99.90
24686;DHT22;12804;51.176;4.452;2023-12-29T11:27:38;11.10;99.90
24686;DHT22;12804;51.176;4.452;2023-12-29T11:30:04;11.00;99.90
24686;DHT22;12804;51.176;4.452;2023-12-29T11:33:07;11.00;99.90
24686;DHT22;12804;51.176;4.452;2023-12-29T11:36:08;11.00;99.90
24686;DHT22;12804;51.176;4.452;2023-12-29T11:38:33;11.10;99.90
24686;DHT22;12804;51.176;4.452;2023-12-29T11:41:09;11.20;99.90
24686;DHT22;12804;51.176;4.452;2023-12-29T11:43:38;11.20;99.90
24686;DHT22;12804;51.176;4.452;2023-12-29T11:46:04;11.20;99.90
24686;DHT22;12804;51.176;4.452;2023-12-29T11:48:58;11.30;99.90
24686;DHT22;12804;51.176;4.452;2023-12-29T11:51:36;11.30;99.90
24686;DHT22;12804;51.176;4.452;2023-12-29T11:54:05;11.40;99.90
24686;DHT22;12804;51.176;4.452;2023-12-29T11:56:33;11.30;99.90
24686;DHT22;12804;51.176;4.452;2023-12-29T11:59:21;11.30;99.90
24686;DHT22;12804;51.176;4.452;2023-12-29T12:01:58;11.40;99.90
24686;DHT22;12804;51.176;4.452;2023-12-29T12:04:42;11.40;99.90
24686;DHT22;12804;51.176;4.452;2023-12-29T12:07:15;11.40;99.90
24686;DHT22;12804;51.176;4.452;2023-12-29T12:09:41;11.50;99.90
24686;DHT22;12804;51.176;4.452;2023-12-29T12:12:07;11.30;99.90
24686;DHT22;12804;51.176;4.452;2023-12-29T12:14:47;11.40;99.90
24686;DHT22;12804;51.176;4.452;2023-12-29T12:17:30;11.50;99.90
24686;DHT22;12804;51.176;4.452;2023-12-29T12:19:57;11.50;99.90
24686;DHT22;12804;51.176;4.452;2023-12-29T12:22:24;11.30;99.90
24686;DHT22;12804;51.176;4.452;2023-12-29T12:25:00;11.20;99.90
24686;DHT22;12804;51.176;4.452;2023-12-29T12:27:27;11.20;99.90
24686;DHT22;12804;51.176;4.452;2023-12-29T12:29:57;11.20;99.90
24686;DHT22;12804;51.176;4.452;2023-12-29T12:32:29;11.20;99.90
24686;DHT22;12804;51.176;4.452;2023-12-29T12:34:55;11.40;99.90
24686;DHT22;12804;51.176;4.452;2023-12-29T12:37:29;11.50;99.90
24686;DHT22;12804;51.176;4.452;2023-12-29T12:39:55;11.40;99.90
24686;DHT22;12804;51.176;4.452;2023-12-29T12:42:22;11.40;99.90
24686;DHT22;12804;51.176;4.452;2023-12-29T12:44:56;11.40;99.90
24686;DHT22;12804;51.176;4.452;2023-12-29T12:47:51;11.60;99.90
24686;DHT22;12804;51.176;4.452;2023-12-29T12:50:18;11.50;99.90
24686;DHT22;12804;51.176;4.452;2023-12-29T12:52:44;11.40;99.90
24686;DHT22;12804;51.176;4.452;2023-12-29T12:55:11;11.50;99.90
24686;DHT22;12804;51.176;4.452;2023-12-29T12:57:38;11.50;99.90
24686;DHT22;12804;51.176;4.452;2023-12-29T13:00:05;11.50;99.90
24686;DHT22;12804;51.176;4.452;2023-12-29T13:02:32;11.60;99.90
24686;DHT22;12804;51.176;4.452;2023-12-29T13:04:58;11.70;99.90
24686;DHT22;12804;51.176;4.452;2023-12-29T13:07:24;11.80;99.90
24686;DHT22;12804;51.176;4.452;2023-12-29T13:09:51;11.80;99.90
24686;DHT22;12804;51.176;4.452;2023-12-29T13:12:18;11.70;99.90
24686;DHT22;12804;51.176;4.452;2023-12-29T13:14:44;11.60;99.90
24686;DHT22;12804;51.176;4.452;2023-12-29T13:17:13;11.60;99.90
24686;DHT22;12804;51.176;4.452;2023-12-29T13:19:40;11.50;99.90
24686;DHT22;12804;51.176;4.452;2023-12-29T13:22:08;11.50;99.90
24686;DHT22;12804;51.176;4.452;2023-12-29T13:24:34;11.40;99.90
24686;DHT22;12804;51.176;4.452;2023-12-29T13:27:06;11.40;99.90
24686;DHT22;12804;51.176;4.452;2023-12-29T13:29:34;11.40;99.90
24686;DHT22;12804;51.176;4.452;2023-12-29T13:32:09;11.30;99.90
24686;DHT22;12804;51.176;4.452;2023-12-29T13:34:55;11.50;99.90
24686;DHT22;12804;51.176;4.452;2023-12-29T13:37:49;11.50;99.90
24686;DHT22;12804;51.176;4.452;2023-12-29T13:42:48;11.60;99.90
24686;DHT22;12804;51.176;4.452;2023-12-29T13:45:17;11.70;99.90
24686;DHT22;12804;51.176;4.452;2023-12-29T13:47:45;11.70;99.90
24686;DHT22;12804;51.176;4.452;2023-12-29T13:50:11;11.70;99.90
24686;DHT22;12804;51.176;4.452;2023-12-29T13:52:37;11.80;99.90
24686;DHT22;12804;51.176;4.452;2023-12-29T13:55:04;11.50;99.90
24686;DHT22;12804;51.176;4.452;2023-12-29T13:57:35;11.40;99.90
24686;DHT22;12804;51.176;4.452;2023-12-29T14:00:23;11.30;99.90
24686;DHT22;12804;51.176;4.452;2023-12-29T14:03:05;11.30;99.90
24686;DHT22;12804;51.176;4.452;2023-12-29T14:05:52;11.20;99.90
24686;DHT22;12804;51.176;4.452;2023-12-29T14:08:32;11.20;99.90
24686;DHT22;12804;51.176;4.452;2023-12-29T14:10:59;11.30;99.90
24686;DHT22;12804;51.176;4.452;2023-12-29T14:13:25;11.30;99.90
24686;DHT22;12804;51.176;4.452;2023-12-29T14:15:52;11.20;99.90
24686;DHT22;12804;51.176;4.452;2023-12-29T14:20:59;11.20;99.90
24686;DHT22;12804;51.176;4.452;2023-12-29T14:23:25;11.20;99.90
24686;DHT22;12804;51.176;4.452;2023-12-29T14:25:51;11.40;99.90
24686;DHT22;12804;51.176;4.452;2023-12-29T14:28:21;11.30;99.90
24686;DHT22;12804;51.176;4.452;2023-12-29T14:30:47;11.30;99.90
24686;DHT22;12804;51.176;4.452;2023-12-29T14:33:13;11.20;99.90
24686;DHT22;12804;51.176;4.452;2023-12-29T14:35:39;11.30;99.90
24686;DHT22;12804;51.176;4.452;2023-12-29T14:38:05;11.20;99.90
24686;DHT22;12804;51.176;4.452;2023-12-29T14:40:31;11.20;99.90
24686;DHT22;12804;51.176;4.452;2023-12-29T14:43:00;11.20;99.90
24686;DHT22;12804;51.176;4.452;2023-12-29T14:45:26;11.00;99.90
24686;DHT22;12804;51.176;4.452;2023-12-29T14:47:58;11.00;99.90
24686;DHT22;12804;51.176;4.452;2023-12-29T14:50:24;11.00;99.90
24686;DHT22;12804;51.176;4.452;2023-12-29T14:52:50;10.90;99.90
24686;DHT22;12804;51.176;4.452;2023-12-29T14:55:15;10.90;99.90
24686;DHT22;12804;51.176;4.452;2023-12-29T14:57:41;10.80;99.90
24686;DHT22;12804;51.176;4.452;2023-12-29T15:00:10;10.80;99.90
24686;DHT22;12804;51.176;4.452;2023-12-29T15:02:36;10.80;99.90
24686;DHT22;12804;51.176;4.452;2023-12-29T15:05:02;10.90;99.90
24686;DHT22;12804;51.176;4.452;2023-12-29T15:07:28;10.90;99.90
24686;DHT22;12804;51.176;4.452;2023-12-29T15:09:56;10.90;99.90
24686;DHT22;12804;51.176;4.452;2023-12-29T15:12:23;10.90;99.90
24686;DHT22;12804;51.176;4.452;2023-12-29T15:14:48;11.00;99.90
24686;DHT22;12804;51.176;4.452;2023-12-29T15:17:14;11.00;99.90
24686;DHT22;12804;51.176;4.452;2023-12-29T15:19:40;11.00;99.90
24686;DHT22;12804;51.176;4.452;2023-12-29T15:22:06;11.00;99.90
24686;DHT22;12804;51.176;4.452;2023-12-29T15:24:32;11.00;99.90
24686;DHT22;12804;51.176;4.452;2023-12-29T15:26:57;11.00;99.90
24686;DHT22;12804;51.176;4.452;2023-12-29T15:29:23;11.00;99.90
24686;DHT22;12804;51.176;4.452;2023-12-29T15:31:49;10.90;99.90
24686;DHT22;12804;51.176;4.452;2023-12-29T15:34:15;10.90;99.90
24686;DHT22;12804;51.176;4.452;2023-12-29T15:36:41;10.90;99.90
24686;DHT22;12804;51.176;4.452;2023-12-29T15:39:07;10.90;99.90
24686;DHT22;12804;51.176;4.452;2023-12-29T15:41:34;11.00;99.90
24686;DHT22;12804;51.176;4.452;2023-12-29T15:44:00;10.90;99.90
24686;DHT22;12804;51.176;4.452;2023-12-29T15:46:29;11.00;99.90